Data for 03/13/2008

Time Sea-Level Adjusted Pressure Absolute Pressure Temperature Relative Humidity Dew Point   
(mb) (inHg) (mb) (inHg) (C) (F) (%) (C) (F)
00:05 1013 29.91 843 24.89 3.2 37.8 35 -10.7 12.7
00:10 1013 29.91 842 24.86 2.9 37.3 40 -9.5 15
00:15 1013 29.91 842 24.86 2.6 36.7 39 -9.9 14.1
00:20 1013 29.91 842 24.86 2.9 37.1 37 -10.3 13.4
00:25 1013 29.91 842 24.86 3.2 37.7 35 -10.8 12.5
00:30 1013 29.91 842 24.86 3.4 38.1 34 -11 12.2
00:35 1013 29.91 842 24.86 3.6 38.5 35 -10.4 13.2
00:40 1013 29.91 842 24.86 3 37.4 41 -9 15.9
00:45 1013 29.91 842 24.86 2.5 36.5 44 -8.5 16.7
00:50 1013 29.91 842 24.86 2.6 36.6 42 -9.1 15.6
00:55 1013 29.91 842 24.86 2.9 37.3 40 -9.5 14.8
01:00 1013 29.91 842 24.86 3.1 37.7 38 -9.9 14.2
01:05 1013 29.91 842 24.86 3.3 37.9 36 -10.6 12.9
01:10 1013 29.91 842 24.86 3.5 38.2 35 -10.7 12.8
01:15 1013 29.91 842 24.86 3.5 38.3 33 -11.3 11.7
01:20 1013 29.91 842 24.86 3.7 38.6 32 -11.4 11.5
01:25 1013 29.91 842 24.86 3.6 38.5 33 -11.3 11.6
01:30 1013 29.91 842 24.86 3.6 38.4 33 -11.1 11.9
01:35 1013 29.91 842 24.86 3.6 38.5 33 -11.1 12
01:40 1013 29.91 842 24.86 3.6 38.4 35 -10.6 12.9
01:45 1012 29.88 842 24.86 3.3 38 36 -10.4 13.4
01:50 1012 29.88 842 24.86 3.1 37.5 38 -10 14
01:55 1012 29.88 842 24.86 2.7 36.8 40 -9.7 14.6
02:00 1012 29.88 842 24.86 2.4 36.3 42 -9.3 15.2
02:05 1012 29.88 842 24.86 2.3 36.2 43 -9.1 15.6
02:10 1012 29.88 842 24.86 2.4 36.4 42 -9.3 15.2
02:15 1012 29.88 841 24.83 2.5 36.4 43 -9 15.8
02:20 1012 29.88 841 24.83 2.3 36.2 42 -9.4 15.1
02:25 1012 29.88 841 24.83 2.5 36.5 38 -10.4 13.2
02:30 1012 29.88 841 24.83 2.6 36.8 39 -10.1 13.9
02:35 1012 29.88 841 24.83 2.7 36.9 38 -10.2 13.6
02:40 1012 29.88 841 24.83 2.6 36.6 41 -9.5 15
02:45 1012 29.88 841 24.83 2.7 36.8 39 -9.9 14.2
02:50 1012 29.88 841 24.83 2.5 36.4 41 -9.4 15.1
02:55 1012 29.88 841 24.83 2.3 36.2 40 -9.8 14.3
03:00 1012 29.88 841 24.83 2.5 36.6 40 -9.9 14.2
03:05 1012 29.88 841 24.83 2.5 36.6 40 -9.7 14.5
03:10 1012 29.88 841 24.83 2.3 36.1 42 -9.2 15.4
03:15 1012 29.88 841 24.83 2.1 35.8 45 -8.8 16.2
03:20 1012 29.88 841 24.83 2.1 35.7 43 -9.2 15.5
03:25 1012 29.88 841 24.83 2.3 36.1 43 -9.1 15.7
03:30 1011 29.85 841 24.83 2.4 36.3 43 -8.9 16
03:35 1011 29.85 841 24.83 2 35.6 45 -8.8 16.1
03:40 1011 29.85 840 24.81 1.7 35 46 -8.8 16.2
03:45 1011 29.85 840 24.81 1.5 34.7 47 -8.6 16.6
03:50 1011 29.85 840 24.81 1.4 34.6 48 -8.5 16.6
03:55 1011 29.85 840 24.81 1.4 34.5 47 -8.6 16.5
04:00 1011 29.85 840 24.81 1.3 34.4 48 -8.4 16.9
04:05 1011 29.85 840 24.81 1.3 34.4 49 -8.3 17
04:10 1011 29.85 840 24.81 1.4 34.5 48 -8.4 17
04:15 1010 29.83 840 24.81 1.5 34.6 47 -8.7 16.3
04:20 1010 29.83 840 24.81 1.7 35 46 -8.9 16
04:25 1010 29.83 840 24.81 1.8 35.2 43 -9.5 14.9
04:30 1010 29.83 840 24.81 1.9 35.4 42 -9.6 14.6
04:35 1010 29.83 840 24.81 2.2 35.9 40 -10 14
04:40 1010 29.83 840 24.81 2.2 35.9 41 -9.6 14.6
04:45 1010 29.83 840 24.81 2.3 36.2 38 -10.6 13
04:50 1010 29.83 840 24.81 2.7 36.9 39 -9.9 14.1
04:55 1010 29.83 840 24.81 2.8 37 42 -9 15.8
05:00 1010 29.83 839 24.78 2.4 36.3 45 -8.5 16.7
05:05 1010 29.83 839 24.78 2.1 35.8 47 -8 17.6
05:10 1010 29.83 839 24.78 1.7 35 51 -7.5 18.5
05:15 1010 29.83 839 24.78 1.4 34.6 53 -7.1 19.2
05:20 1010 29.83 839 24.78 1 33.7 55 -7.1 19.2
05:25 1010 29.83 839 24.78 0.8 33.5 53 -7.6 18.3
05:30 1010 29.83 839 24.78 1.2 34.2 51 -7.7 18.1
05:35 1010 29.83 839 24.78 1.4 34.5 52 -7.4 18.7
05:40 1010 29.83 839 24.78 1.3 34.3 52 -7.5 18.4
05:45 1010 29.83 839 24.78 1.1 34.1 52 -7.7 18.2
05:50 1010 29.83 839 24.78 1.1 34 49 -8.5 16.7
05:55 1010 29.83 839 24.78 1.2 34.1 53 -7.5 18.5
06:00 1010 29.83 839 24.78 0.7 33.3 56 -7.1 19.1
06:05 1010 29.83 839 24.78 0.6 33 57 -7 19.4
06:10 1010 29.83 839 24.78 0.5 32.9 59 -6.6 20.1
06:15 1010 29.83 839 24.78 0.4 32.7 58 -7 19.4
06:20 1010 29.83 839 24.78 0.5 32.9 57 -7 19.3
06:25 1010 29.83 839 24.78 0.6 33.1 56 -7.1 19.2
06:30 1010 29.83 839 24.78 0.7 33.2 56 -7.2 19
06:35 1010 29.83 839 24.78 0.7 33.3 54 -7.5 18.4
06:40 1010 29.83 839 24.78 0.9 33.5 53 -7.6 18.4
06:45 1010 29.83 839 24.78 0.9 33.6 52 -7.8 18
06:50 1010 29.83 839 24.78 1.3 34.3 52 -7.6 18.4
06:55 1010 29.83 839 24.78 1.4 34.5 51 -7.7 18.1
07:00 1010 29.83 839 24.78 1.3 34.3 50 -8 17.6
07:05 1010 29.83 839 24.78 1.4 34.4 51 -7.6 18.3
07:10 1010 29.83 839 24.78 1.2 34.1 53 -7.5 18.6
07:15 1010 29.83 839 24.78 1.1 34 53 -7.5 18.5
07:20 1010 29.83 839 24.78 0.9 33.7 55 -7.2 19
07:25 1010 29.83 839 24.78 0.9 33.7 58 -6.4 20.5
07:30 1010 29.83 839 24.78 0.6 33 61 -6.1 21
07:35 1010 29.83 839 24.78 0.3 32.6 63 -5.9 21.4
07:40 1010 29.83 839 24.78 0.4 32.7 62 -6 21.1
07:45 1010 29.83 839 24.78 0.8 33.5 60 -6.1 21
07:50 1010 29.83 839 24.78 1 33.8 58 -6.4 20.5
07:55 1010 29.83 839 24.78 1 33.9 57 -6.5 20.2
08:00 1010 29.83 839 24.78 1.1 33.9 57 -6.6 20.1
08:05 1010 29.83 839 24.78 1.2 34.2 57 -6.4 20.4
08:10 1010 29.83 839 24.78 1.2 34.2 57 -6.4 20.5
08:15 1010 29.83 839 24.78 1.3 34.3 57 -6.3 20.7
08:20 1010 29.83 839 24.78 1.1 34 57 -6.4 20.4
08:25 1010 29.83 839 24.78 1 33.8 58 -6.2 20.8
08:30 1010 29.83 839 24.78 1 33.8 58 -6.3 20.6
08:35 1010 29.83 839 24.78 1.1 33.9 59 -6 21.2
08:40 1010 29.83 839 24.78 1.2 34.1 58 -6.1 21
08:45 1010 29.83 839 24.78 1.3 34.3 57 -6.2 20.8
08:50 1010 29.83 839 24.78 1.5 34.6 56 -6.4 20.5
08:55 1010 29.83 839 24.78 1.5 34.8 55 -6.6 20
09:00 1010 29.83 839 24.78 1.4 34.5 56 -6.4 20.5
09:05 1010 29.83 839 24.78 1.2 34.1 57 -6.4 20.5
09:10 1010 29.83 839 24.78 1.5 34.7 57 -6.2 20.9
09:15 1010 29.83 839 24.78 1.6 34.9 56 -6.2 20.9
09:20 1010 29.83 839 24.78 1.6 34.8 54 -6.7 19.9
09:25 1010 29.83 839 24.78 1.6 34.9 53 -6.9 19.6
09:30 1010 29.83 839 24.78 1.9 35.4 51 -7.1 19.3
09:35 1010 29.83 839 24.78 2.1 35.7 50 -7.3 18.9
09:40 1009 29.8 839 24.78 2.1 35.8 50 -7.3 18.9
09:45 1009 29.8 839 24.78 2.2 36 48 -7.7 18.2
09:50 1009 29.8 839 24.78 2.5 36.5 46 -8 17.6
09:55 1009 29.8 838 24.75 2.7 36.9 45 -8.2 17.2
10:00 1009 29.8 838 24.75 3 37.3 43 -8.3 17.1
10:05 1009 29.8 838 24.75 2.5 36.6 44 -8.4 16.9
10:10 1009 29.8 838 24.75 2.9 37.3 43 -8.3 17
10:15 1009 29.8 838 24.75 3.5 38.4 42 -8.3 17
10:20 1009 29.8 838 24.75 3.4 38.2 42 -8.3 17
10:25 1009 29.8 838 24.75 3.5 38.2 42 -8.3 17.1
10:30 1009 29.8 838 24.75 4.1 39.5 40 -8.3 17
10:35 1009 29.8 838 24.75 4.4 39.9 38 -8.7 16.3
10:40 1009 29.8 838 24.75 4 39.2 39 -8.8 16.1
10:45 1009 29.8 838 24.75 3.9 39 40 -8.5 16.7
10:50 1009 29.8 838 24.75 4.5 40.2 39 -8.3 17
10:55 1009 29.8 838 24.75 5.3 41.6 36 -8.5 16.7
11:00 1009 29.8 838 24.75 4.4 40 36 -9.4 15
11:05 1009 29.8 838 24.75 4.4 39.9 36 -9.5 14.9
11:10 1009 29.8 838 24.75 4.5 40.1 36 -9.2 15.4
11:15 1009 29.8 838 24.75 5 40.9 35 -9.4 15
11:20 1009 29.8 838 24.75 4.8 40.6 35 -9.5 14.8
11:25 1009 29.8 838 24.75 4.1 39.4 34 -10.2 13.6
11:30 1009 29.8 838 24.75 3.8 38.9 35 -10.4 13.2
11:35 1009 29.8 838 24.75 3.8 38.9 35 -10.3 13.5
11:40 1009 29.8 838 24.75 4 39.2 37 -9.5 14.9
11:45 1009 29.8 838 24.75 4.2 39.6 38 -9 15.8
11:50 1009 29.8 838 24.75 4.1 39.4 39 -8.6 16.5
11:55 1009 29.8 838 24.75 5 40.9 38 -8.2 17.3
12:00 1009 29.8 838 24.75 5.4 41.8 37 -8.1 17.4
12:05 1009 29.8 838 24.75 6 42.7 35 -8.2 17.2
12:10 1009 29.8 838 24.75 6.1 43 35 -8.4 16.9
12:15 1009 29.8 838 24.75 5.7 42.3 35 -8.5 16.6
12:20 1008 29.77 838 24.75 5.6 42.1 35 -8.6 16.6
12:25 1008 29.77 838 24.75 5.8 42.4 35 -8.6 16.6
12:30 1008 29.77 838 24.75 5.4 41.8 36 -8.6 16.5
12:35 1008 29.77 838 24.75 6 42.9 34 -8.6 16.5
12:40 1008 29.77 837 24.72 6.3 43.3 34 -8.4 16.9
12:45 1008 29.77 837 24.72 6.3 43.4 34 -8.4 16.8
12:50 1008 29.77 837 24.72 6.7 44.1 33 -8.4 16.9
12:55 1008 29.77 837 24.72 6.4 43.5 32 -8.9 15.9
13:00 1008 29.77 837 24.72 5.9 42.7 34 -8.9 15.9
13:05 1008 29.77 837 24.72 6.1 43.1 32 -9.2 15.4
13:10 1008 29.77 837 24.72 6.4 43.5 31 -9.6 14.8
13:15 1008 29.77 837 24.72 5.5 41.8 34 -9.3 15.3
13:20 1008 29.77 837 24.72 5 41.1 34 -9.5 14.9
13:25 1008 29.77 837 24.72 5.4 41.8 34 -9.3 15.2
13:30 1008 29.77 837 24.72 6 42.7 33 -9.2 15.4
13:35 1008 29.77 837 24.72 6.7 44.1 32 -8.9 16
13:40 1008 29.77 837 24.72 6.4 43.6 32 -9.1 15.6
13:45 1008 29.77 837 24.72 6.7 44 32 -9 15.8
13:50 1008 29.77 837 24.72 6.4 43.6 32 -9.2 15.5
13:55 1008 29.77 837 24.72 6.2 43.2 33 -9 15.9
14:00 1008 29.77 837 24.72 6.1 43 31 -9.6 14.7
14:05 1008 29.77 837 24.72 5.7 42.2 33 -9.4 15
14:10 1008 29.77 837 24.72 5.4 41.8 34 -9.4 15.1
14:15 1007 29.74 837 24.72 5.4 41.8 33 -9.5 14.8
14:20 1007 29.74 837 24.72 5.5 41.9 33 -9.7 14.5
14:25 1007 29.74 837 24.72 5.4 41.8 33 -9.7 14.5
14:30 1007 29.74 836 24.69 5.9 42.6 32 -9.7 14.6
14:35 1007 29.74 836 24.69 5.8 42.5 32 -9.5 14.9
14:40 1007 29.74 836 24.69 6.8 44.2 30 -9.4 15
14:45 1007 29.74 836 24.69 7.8 46 29 -9.2 15.5
14:50 1007 29.74 836 24.69 8 46.3 30 -8.8 16.2
14:55 1007 29.74 836 24.69 8 46.3 28 -9.3 15.3
15:00 1007 29.74 836 24.69 7.9 46.2 28 -9.5 14.9
15:05 1007 29.74 836 24.69 7.7 45.8 29 -9.4 15.1
15:10 1007 29.74 836 24.69 7.6 45.6 29 -9.4 15.1
15:15 1007 29.74 836 24.69 7 44.6 30 -9.3 15.2
15:20 1007 29.74 836 24.69 6.6 43.9 31 -9.1 15.6
15:25 1007 29.74 836 24.69 7.3 45.2 30 -8.9 15.9
15:30 1007 29.74 836 24.69 7.5 45.6 30 -8.9 15.9
15:35 1007 29.74 836 24.69 7.9 46.2 30 -8.7 16.4
15:40 1007 29.74 836 24.69 7.8 46 30 -8.6 16.5
15:45 1007 29.74 836 24.69 7.9 46.2 30 -8.6 16.5
15:50 1007 29.74 836 24.69 7.5 45.5 31 -8.6 16.5
15:55 1007 29.74 836 24.69 6.4 43.5 32 -9 15.9
16:00 1007 29.74 836 24.69 6.2 43.1 33 -9 15.7
16:05 1007 29.74 836 24.69 6.4 43.5 32 -9.1 15.7
16:10 1007 29.74 836 24.69 6.4 43.5 32 -9 15.8
16:15 1007 29.74 836 24.69 6.9 44.5 32 -8.5 16.7
16:20 1007 29.74 836 24.69 7.3 45.2 32 -8.4 16.9
16:25 1007 29.74 836 24.69 7.3 45.1 32 -8.3 17.1
16:30 1007 29.74 836 24.69 7.1 44.8 31 -8.8 16.2
16:35 1007 29.74 836 24.69 6.8 44.3 32 -8.5 16.6
16:40 1007 29.74 836 24.69 5.7 42.3 34 -8.8 16.1
16:45 1007 29.74 836 24.69 6.1 42.9 34 -8.8 16.2
16:50 1007 29.74 836 24.69 6.2 43.2 35 -8.3 17.1
16:55 1007 29.74 836 24.69 6.7 44 34 -8.1 17.5
17:00 1007 29.74 836 24.69 6.9 44.3 34 -8.1 17.5
17:05 1007 29.74 836 24.69 6.6 43.9 34 -8 17.5
17:10 1007 29.74 836 24.69 6.6 43.8 35 -7.9 17.8
17:15 1007 29.74 836 24.69 6.8 44.3 34 -7.9 17.7
17:20 1007 29.74 836 24.69 7 44.6 34 -7.8 17.9
17:25 1007 29.74 836 24.69 7.2 45 34 -7.6 18.3
17:30 1007 29.74 836 24.69 7.2 44.9 33 -7.9 17.8
17:35 1007 29.74 836 24.69 7 44.6 34 -7.8 18
17:40 1007 29.74 836 24.69 6.7 44 34 -8 17.5
17:45 1007 29.74 836 24.69 5.9 42.7 35 -8.3 17.1
17:50 1007 29.74 836 24.69 5.9 42.6 37 -7.9 17.8
17:55 1007 29.74 836 24.69 6 42.8 36 -8.1 17.5
18:00 1007 29.74 836 24.69 5.5 42 38 -7.7 18.2
18:05 1007 29.74 836 24.69 4.9 40.9 41 -7.1 19.2
18:10 1007 29.74 836 24.69 4.7 40.4 42 -7 19.3
18:15 1007 29.74 836 24.69 4.7 40.5 43 -6.8 19.7
18:20 1007 29.74 836 24.69 4.2 39.6 45 -6.6 20.1
18:25 1007 29.74 836 24.69 4.1 39.3 45 -6.8 19.8
18:30 1007 29.74 836 24.69 4.5 40.1 44 -6.8 19.8
18:35 1007 29.74 836 24.69 4.6 40.3 44 -6.4 20.4
18:40 1007 29.74 836 24.69 4.4 39.9 45 -6.7 20
18:45 1007 29.74 836 24.69 4.2 39.5 46 -6.6 20.1
18:50 1007 29.74 836 24.69 3.9 39 46 -6.7 20
18:55 1007 29.74 836 24.69 4 39.1 46 -6.6 20.1
19:00 1007 29.74 836 24.69 4 39.2 49 -5.8 21.5
19:05 1007 29.74 836 24.69 3.9 39.1 49 -5.7 21.7
19:10 1007 29.74 836 24.69 3.8 38.8 50 -5.7 21.8
19:15 1007 29.74 836 24.69 4 39.1 48 -6 21.2
19:20 1007 29.74 836 24.69 3.9 39.1 49 -5.8 21.5
19:25 1007 29.74 836 24.69 3.8 38.8 49 -6.1 21
19:30 1007 29.74 836 24.69 4 39.1 48 -6 21.2
19:35 1007 29.74 836 24.69 3.9 39.1 49 -5.9 21.3
19:40 1007 29.74 836 24.69 3.8 38.8 50 -5.8 21.5
19:45 1007 29.74 837 24.72 4.1 39.3 49 -5.7 21.7
19:50 1007 29.74 837 24.72 4 39.2 51 -5.4 22.4
19:55 1007 29.74 837 24.72 3.6 38.4 53 -5.2 22.7
20:00 1007 29.74 837 24.72 3.7 38.7 53 -5 23
20:05 1007 29.74 837 24.72 3.7 38.7 54 -4.7 23.5
20:10 1007 29.74 837 24.72 3.5 38.3 55 -4.7 23.6
20:15 1007 29.74 837 24.72 3.3 37.9 56 -4.7 23.6
20:20 1007 29.74 837 24.72 3 37.4 58 -4.5 23.9
20:25 1007 29.74 837 24.72 2.7 36.8 59 -4.5 24
20:30 1007 29.74 837 24.72 2.6 36.6 60 -4.5 24
20:35 1007 29.74 837 24.72 2.7 36.9 60 -4.3 24.2
20:40 1007 29.74 837 24.72 3 37.3 60 -4.1 24.7
20:45 1007 29.74 837 24.72 3 37.3 61 -3.9 25
20:50 1007 29.74 837 24.72 2.8 37 62 -3.8 25.1
20:55 1007 29.74 837 24.72 2.7 36.8 63 -3.7 25.4
21:00 1007 29.74 837 24.72 2.5 36.5 64 -3.6 25.5
21:05 1008 29.77 837 24.72 2.3 36.1 65 -3.5 25.6
21:10 1008 29.77 837 24.72 2.3 36.1 67 -3.3 26.1
21:15 1008 29.77 837 24.72 2 35.6 68 -3.3 26.1
21:20 1008 29.77 837 24.72 2 35.6 69 -3.1 26.5
21:25 1008 29.77 837 24.72 1.9 35.4 70 -3.1 26.5
21:30 1008 29.77 837 24.72 1.7 35.1 71 -3.1 26.5
21:35 1008 29.77 837 24.72 2 35.6 70 -3 26.7
21:40 1008 29.77 837 24.72 1.9 35.4 68 -3.4 25.9
21:45 1008 29.77 837 24.72 1.8 35.3 67 -3.6 25.6
21:50 1008 29.77 837 24.72 1.8 35.3 67 -3.6 25.6
21:55 1008 29.77 837 24.72 1.9 35.4 67 -3.6 25.5
22:00 1008 29.77 837 24.72 2 35.5 67 -3.6 25.5
22:05 1008 29.77 837 24.72 2 35.5 67 -3.5 25.7
22:10 1008 29.77 837 24.72 2 35.5 67 -3.5 25.7
22:15 1008 29.77 837 24.72 1.9 35.4 67 -3.5 25.7
22:20 1008 29.77 837 24.72 1.8 35.2 70 -3.1 26.5
22:25 1008 29.77 837 24.72 1.8 35.2 72 -2.7 27.2
22:30 1008 29.77 837 24.72 1.7 35.1 73 -2.6 27.3
22:35 1008 29.77 837 24.72 1.5 34.7 74 -2.6 27.3
22:40 1008 29.77 837 24.72 1.5 34.6 75 -2.5 27.4
22:45 1008 29.77 837 24.72 1.4 34.6 73 -2.9 26.8
22:50 1008 29.77 837 24.72 1.4 34.6 73 -2.9 26.8
22:55 1008 29.77 837 24.72 1.4 34.6 73 -3 26.7
23:00 1008 29.77 837 24.72 1.4 34.6 72 -3.1 26.4
23:05 1008 29.77 837 24.72 1.3 34.4 71 -3.4 26
23:10 1008 29.77 837 24.72 1.3 34.3 71 -3.5 25.8
23:15 1008 29.77 837 24.72 1.3 34.3 70 -3.7 25.4
23:20 1008 29.77 837 24.72 1.2 34.2 70 -3.7 25.3
23:25 1008 29.77 837 24.72 1.1 34 70 -3.8 25.2
23:30 1008 29.77 837 24.72 1 33.8 70 -3.9 25.1
23:35 1008 29.77 837 24.72 0.9 33.7 71 -3.7 25.3
23:40 1008 29.77 837 24.72 0.9 33.6 74 -3.3 26
23:45 1008 29.77 837 24.72 0.9 33.5 75 -3.1 26.5
23:50 1008 29.77 837 24.72 0.8 33.4 75 -3.1 26.5
23:55 1008 29.77 837 24.72 0.7 33.3 76 -3.1 26.5
24:00 1008 29.77 837 24.72 0.7 33.2 76 -3.1 26.5